sensor_id;sensor_type;location;lat;lon;timestamp;temperature;humidity
26270;DHT22;15937;50.612;6.656;2022-12-17T00:00:37;-0.70;99.90
26270;DHT22;15937;50.612;6.656;2022-12-17T00:04:57;-0.70;99.90
26270;DHT22;15937;50.612;6.656;2022-12-17T00:09:17;-0.70;99.90
26270;DHT22;15937;50.612;6.656;2022-12-17T00:13:37;-0.70;99.90
26270;DHT22;15937;50.612;6.656;2022-12-17T00:18:01;-0.60;99.90
26270;DHT22;15937;50.612;6.656;2022-12-17T00:22:21;-0.60;99.90
26270;DHT22;15937;50.612;6.656;2022-12-17T00:26:41;-0.60;99.90
26270;DHT22;15937;50.612;6.656;2022-12-17T00:31:02;-0.70;99.90
26270;DHT22;15937;50.612;6.656;2022-12-17T00:35:22;-0.80;99.90
26270;DHT22;15937;50.612;6.656;2022-12-17T00:39:42;-0.90;99.90
26270;DHT22;15937;50.612;6.656;2022-12-17T00:44:03;-1.00;99.90
26270;DHT22;15937;50.612;6.656;2022-12-17T00:48:23;-1.00;99.90
26270;DHT22;15937;50.612;6.656;2022-12-17T00:52:43;-0.80;99.90
26270;DHT22;15937;50.612;6.656;2022-12-17T00:57:03;-0.90;99.90
26270;DHT22;15937;50.612;6.656;2022-12-17T01:01:23;-1.20;99.90
26270;DHT22;15937;50.612;6.656;2022-12-17T01:05:43;-1.30;99.90
26270;DHT22;15937;50.612;6.656;2022-12-17T01:10:04;-1.40;99.90
26270;DHT22;15937;50.612;6.656;2022-12-17T01:14:25;-1.30;99.90
26270;DHT22;15937;50.612;6.656;2022-12-17T01:18:45;-1.40;99.90
26270;DHT22;15937;50.612;6.656;2022-12-17T01:23:06;-1.50;99.90
26270;DHT22;15937;50.612;6.656;2022-12-17T01:27:26;-1.40;99.90
26270;DHT22;15937;50.612;6.656;2022-12-17T01:31:46;-1.40;99.90
26270;DHT22;15937;50.612;6.656;2022-12-17T01:36:07;-1.40;99.90
26270;DHT22;15937;50.612;6.656;2022-12-17T01:40:27;-1.50;99.90
26270;DHT22;15937;50.612;6.656;2022-12-17T01:44:48;-1.60;99.90
26270;DHT22;15937;50.612;6.656;2022-12-17T01:49:09;-1.60;99.90
26270;DHT22;15937;50.612;6.656;2022-12-17T01:53:31;-1.70;99.90
26270;DHT22;15937;50.612;6.656;2022-12-17T01:57:53;-1.60;99.90
26270;DHT22;15937;50.612;6.656;2022-12-17T02:02:13;-1.70;99.90
26270;DHT22;15937;50.612;6.656;2022-12-17T02:06:33;-1.70;99.90
26270;DHT22;15937;50.612;6.656;2022-12-17T02:15:43;-1.90;99.90
26270;DHT22;15937;50.612;6.656;2022-12-17T02:20:19;-1.90;99.90
26270;DHT22;15937;50.612;6.656;2022-12-17T02:24:52;-2.10;99.90
26270;DHT22;15937;50.612;6.656;2022-12-17T02:29:14;-2.10;99.90
26270;DHT22;15937;50.612;6.656;2022-12-17T02:33:35;-2.20;99.90
26270;DHT22;15937;50.612;6.656;2022-12-17T02:37:55;-2.20;99.90
26270;DHT22;15937;50.612;6.656;2022-12-17T02:42:15;-2.30;99.90
26270;DHT22;15937;50.612;6.656;2022-12-17T02:46:37;-2.50;99.90
26270;DHT22;15937;50.612;6.656;2022-12-17T02:50:58;-2.60;99.90
26270;DHT22;15937;50.612;6.656;2022-12-17T02:55:18;-2.70;99.90
26270;DHT22;15937;50.612;6.656;2022-12-17T02:59:38;-2.70;99.90
26270;DHT22;15937;50.612;6.656;2022-12-17T03:03:58;-2.80;99.90
26270;DHT22;15937;50.612;6.656;2022-12-17T03:08:18;-3.00;99.90
26270;DHT22;15937;50.612;6.656;2022-12-17T03:12:38;-3.10;99.90
26270;DHT22;15937;50.612;6.656;2022-12-17T03:16:58;-3.20;99.90
26270;DHT22;15937;50.612;6.656;2022-12-17T03:21:19;-3.40;99.90
26270;DHT22;15937;50.612;6.656;2022-12-17T03:25:39;-3.50;99.90
26270;DHT22;15937;50.612;6.656;2022-12-17T03:30:00;-3.60;99.90
26270;DHT22;15937;50.612;6.656;2022-12-17T03:34:20;-3.50;99.90
26270;DHT22;15937;50.612;6.656;2022-12-17T03:38:40;-3.50;99.90
26270;DHT22;15937;50.612;6.656;2022-12-17T03:43:06;-3.60;99.90
26270;DHT22;15937;50.612;6.656;2022-12-17T03:47:27;-3.60;99.90
26270;DHT22;15937;50.612;6.656;2022-12-17T03:51:47;-3.70;99.90
26270;DHT22;15937;50.612;6.656;2022-12-17T03:56:07;-3.90;99.90
26270;DHT22;15937;50.612;6.656;2022-12-17T04:00:27;-3.80;99.90
26270;DHT22;15937;50.612;6.656;2022-12-17T04:04:47;-4.20;99.90
26270;DHT22;15937;50.612;6.656;2022-12-17T04:09:07;-4.40;99.90
26270;DHT22;15937;50.612;6.656;2022-12-17T04:13:27;-4.40;99.90
26270;DHT22;15937;50.612;6.656;2022-12-17T04:17:48;-4.60;99.90
26270;DHT22;15937;50.612;6.656;2022-12-17T04:22:09;-4.80;99.90
26270;DHT22;15937;50.612;6.656;2022-12-17T04:26:29;-4.70;99.90
26270;DHT22;15937;50.612;6.656;2022-12-17T04:30:52;-4.80;99.90
26270;DHT22;15937;50.612;6.656;2022-12-17T04:35:12;-4.70;99.90
26270;DHT22;15937;50.612;6.656;2022-12-17T04:39:32;-4.80;99.90
26270;DHT22;15937;50.612;6.656;2022-12-17T04:43:53;-4.80;99.90
26270;DHT22;15937;50.612;6.656;2022-12-17T04:48:13;-5.00;99.90
26270;DHT22;15937;50.612;6.656;2022-12-17T04:52:33;-5.20;99.90
26270;DHT22;15937;50.612;6.656;2022-12-17T04:56:53;-5.30;99.90
26270;DHT22;15937;50.612;6.656;2022-12-17T05:01:13;-5.30;99.90
26270;DHT22;15937;50.612;6.656;2022-12-17T05:05:34;-5.50;99.90
26270;DHT22;15937;50.612;6.656;2022-12-17T05:09:54;-5.60;99.90
26270;DHT22;15937;50.612;6.656;2022-12-17T05:14:14;-5.70;99.90
26270;DHT22;15937;50.612;6.656;2022-12-17T05:18:35;-5.60;99.90
26270;DHT22;15937;50.612;6.656;2022-12-17T05:22:55;-5.60;99.90
26270;DHT22;15937;50.612;6.656;2022-12-17T05:27:15;-5.40;99.90
26270;DHT22;15937;50.612;6.656;2022-12-17T05:31:35;-5.40;99.90
26270;DHT22;15937;50.612;6.656;2022-12-17T05:35:58;-5.70;99.90
26270;DHT22;15937;50.612;6.656;2022-12-17T05:40:18;-5.50;99.90
26270;DHT22;15937;50.612;6.656;2022-12-17T05:44:38;-5.70;99.90
26270;DHT22;15937;50.612;6.656;2022-12-17T05:48:58;-5.60;99.90
26270;DHT22;15937;50.612;6.656;2022-12-17T05:53:18;-5.60;99.90
26270;DHT22;15937;50.612;6.656;2022-12-17T05:57:39;-5.60;99.90
26270;DHT22;15937;50.612;6.656;2022-12-17T06:01:59;-5.50;99.90
26270;DHT22;15937;50.612;6.656;2022-12-17T06:06:19;-5.40;99.90
26270;DHT22;15937;50.612;6.656;2022-12-17T06:10:39;-5.50;99.90
26270;DHT22;15937;50.612;6.656;2022-12-17T06:14:59;-5.40;99.90
26270;DHT22;15937;50.612;6.656;2022-12-17T06:19:19;-5.30;99.90
26270;DHT22;15937;50.612;6.656;2022-12-17T06:23:39;-5.40;99.90
26270;DHT22;15937;50.612;6.656;2022-12-17T06:28:00;-5.70;99.90
26270;DHT22;15937;50.612;6.656;2022-12-17T06:32:20;-5.80;99.90
26270;DHT22;15937;50.612;6.656;2022-12-17T06:36:41;-5.80;99.90
26270;DHT22;15937;50.612;6.656;2022-12-17T06:41:08;-5.70;99.90
26270;DHT22;15937;50.612;6.656;2022-12-17T06:45:28;-6.10;99.90
26270;DHT22;15937;50.612;6.656;2022-12-17T06:49:48;-6.30;99.90
26270;DHT22;15937;50.612;6.656;2022-12-17T06:54:08;-6.40;99.90
26270;DHT22;15937;50.612;6.656;2022-12-17T06:58:28;-6.10;99.90
26270;DHT22;15937;50.612;6.656;2022-12-17T07:02:48;-6.00;99.90
26270;DHT22;15937;50.612;6.656;2022-12-17T07:07:15;-5.90;99.90
26270;DHT22;15937;50.612;6.656;2022-12-17T07:11:35;-5.80;99.90
26270;DHT22;15937;50.612;6.656;2022-12-17T07:15:55;-6.00;99.90
26270;DHT22;15937;50.612;6.656;2022-12-17T07:20:15;-6.10;99.90
26270;DHT22;15937;50.612;6.656;2022-12-17T07:24:36;-6.00;99.90
26270;DHT22;15937;50.612;6.656;2022-12-17T07:28:56;-6.30;99.90
26270;DHT22;15937;50.612;6.656;2022-12-17T07:33:16;-6.40;99.90
26270;DHT22;15937;50.612;6.656;2022-12-17T07:37:36;-6.30;99.90
26270;DHT22;15937;50.612;6.656;2022-12-17T07:41:56;-6.30;99.90
26270;DHT22;15937;50.612;6.656;2022-12-17T07:46:16;-6.40;99.90
26270;DHT22;15937;50.612;6.656;2022-12-17T07:50:38;-6.20;99.90
26270;DHT22;15937;50.612;6.656;2022-12-17T07:54:58;-6.40;99.90
26270;DHT22;15937;50.612;6.656;2022-12-17T07:59:18;-6.40;99.90
26270;DHT22;15937;50.612;6.656;2022-12-17T08:03:39;-6.50;99.90
26270;DHT22;15937;50.612;6.656;2022-12-17T08:08:05;-6.40;99.90
26270;DHT22;15937;50.612;6.656;2022-12-17T08:12:25;-6.60;99.90
26270;DHT22;15937;50.612;6.656;2022-12-17T08:16:45;-6.50;99.90
26270;DHT22;15937;50.612;6.656;2022-12-17T08:21:05;-6.40;99.90
26270;DHT22;15937;50.612;6.656;2022-12-17T08:25:26;-5.70;99.90
26270;DHT22;15937;50.612;6.656;2022-12-17T08:29:46;-5.90;99.90
26270;DHT22;15937;50.612;6.656;2022-12-17T08:34:20;-5.80;99.90
26270;DHT22;15937;50.612;6.656;2022-12-17T08:38:40;-5.60;99.90
26270;DHT22;15937;50.612;6.656;2022-12-17T08:43:00;-5.40;99.90
26270;DHT22;15937;50.612;6.656;2022-12-17T08:47:20;-5.30;99.90
26270;DHT22;15937;50.612;6.656;2022-12-17T08:51:41;-5.20;99.90
26270;DHT22;15937;50.612;6.656;2022-12-17T09:00:40;-4.80;99.90
26270;DHT22;15937;50.612;6.656;2022-12-17T09:05:00;-4.60;99.90
26270;DHT22;15937;50.612;6.656;2022-12-17T09:09:20;-4.50;99.90
26270;DHT22;15937;50.612;6.656;2022-12-17T09:13:40;-4.30;99.90
26270;DHT22;15937;50.612;6.656;2022-12-17T09:18:00;-4.30;99.90
26270;DHT22;15937;50.612;6.656;2022-12-17T09:22:21;-4.10;99.90
26270;DHT22;15937;50.612;6.656;2022-12-17T09:26:41;-4.20;99.90
26270;DHT22;15937;50.612;6.656;2022-12-17T09:31:01;-4.10;99.90
26270;DHT22;15937;50.612;6.656;2022-12-17T09:35:22;-3.80;99.90
26270;DHT22;15937;50.612;6.656;2022-12-17T09:39:42;-3.60;99.90
26270;DHT22;15937;50.612;6.656;2022-12-17T09:44:25;-3.50;99.90
26270;DHT22;15937;50.612;6.656;2022-12-17T09:53:15;-3.40;99.90
26270;DHT22;15937;50.612;6.656;2022-12-17T09:57:37;-3.30;99.90
26270;DHT22;15937;50.612;6.656;2022-12-17T10:01:57;-3.20;99.90
26270;DHT22;15937;50.612;6.656;2022-12-17T10:06:19;-3.10;99.90
26270;DHT22;15937;50.612;6.656;2022-12-17T10:10:42;-3.10;99.90
26270;DHT22;15937;50.612;6.656;2022-12-17T10:15:03;-2.80;99.90
26270;DHT22;15937;50.612;6.656;2022-12-17T10:19:34;-2.70;99.90
26270;DHT22;15937;50.612;6.656;2022-12-17T10:24:05;-2.60;99.90
26270;DHT22;15937;50.612;6.656;2022-12-17T10:28:26;-2.40;99.90
26270;DHT22;15937;50.612;6.656;2022-12-17T10:32:54;-2.30;99.90
26270;DHT22;15937;50.612;6.656;2022-12-17T10:37:18;-2.20;99.90
26270;DHT22;15937;50.612;6.656;2022-12-17T10:41:40;-2.00;99.90
26270;DHT22;15937;50.612;6.656;2022-12-17T10:46:21;-1.90;99.90
26270;DHT22;15937;50.612;6.656;2022-12-17T10:50:49;-1.80;99.90
26270;DHT22;15937;50.612;6.656;2022-12-17T10:59:39;-1.80;99.90
26270;DHT22;15937;50.612;6.656;2022-12-17T11:04:00;-2.10;99.90
26270;DHT22;15937;50.612;6.656;2022-12-17T11:08:40;-2.10;99.90
26270;DHT22;15937;50.612;6.656;2022-12-17T11:13:03;-2.20;99.90
26270;DHT22;15937;50.612;6.656;2022-12-17T11:17:24;-2.40;99.90
26270;DHT22;15937;50.612;6.656;2022-12-17T11:21:50;-2.30;99.90
26270;DHT22;15937;50.612;6.656;2022-12-17T11:26:12;-2.00;99.90
26270;DHT22;15937;50.612;6.656;2022-12-17T11:30:42;-2.10;99.90
26270;DHT22;15937;50.612;6.656;2022-12-17T11:35:16;-1.90;99.90
26270;DHT22;15937;50.612;6.656;2022-12-17T11:48:46;-1.90;99.90
26270;DHT22;15937;50.612;6.656;2022-12-17T11:57:51;-1.90;99.90
26270;DHT22;15937;50.612;6.656;2022-12-17T12:02:28;-1.80;99.90
26270;DHT22;15937;50.612;6.656;2022-12-17T12:33:44;-1.60;99.90
26270;DHT22;15937;50.612;6.656;2022-12-17T12:38:09;-1.60;99.90
26270;DHT22;15937;50.612;6.656;2022-12-17T12:42:41;-1.70;99.90
26270;DHT22;15937;50.612;6.656;2022-12-17T12:47:08;-1.70;99.90
26270;DHT22;15937;50.612;6.656;2022-12-17T12:51:35;-1.60;99.90
26270;DHT22;15937;50.612;6.656;2022-12-17T12:55:55;-1.60;99.90
26270;DHT22;15937;50.612;6.656;2022-12-17T13:00:36;-1.60;99.90
26270;DHT22;15937;50.612;6.656;2022-12-17T13:04:56;-1.60;99.90
26270;DHT22;15937;50.612;6.656;2022-12-17T13:14:21;-1.40;99.90
26270;DHT22;15937;50.612;6.656;2022-12-17T13:18:28;-1.30;99.90
26270;DHT22;15937;50.612;6.656;2022-12-17T13:22:32;-1.20;99.90
26270;DHT22;15937;50.612;6.656;2022-12-17T13:30:42;-1.30;99.90
26270;DHT22;15937;50.612;6.656;2022-12-17T13:43:51;-1.20;99.90
26270;DHT22;15937;50.612;6.656;2022-12-17T13:47:54;-1.10;99.90
26270;DHT22;15937;50.612;6.656;2022-12-17T13:52:01;-1.10;99.90
26270;DHT22;15937;50.612;6.656;2022-12-17T13:56:12;-1.00;99.90
26270;DHT22;15937;50.612;6.656;2022-12-17T14:00:24;-0.90;99.90
26270;DHT22;15937;50.612;6.656;2022-12-17T14:04:26;-0.90;99.90
26270;DHT22;15937;50.612;6.656;2022-12-17T14:08:30;-0.90;99.90
26270;DHT22;15937;50.612;6.656;2022-12-17T14:12:32;-0.90;99.90
26270;DHT22;15937;50.612;6.656;2022-12-17T14:16:35;-0.80;99.90
26270;DHT22;15937;50.612;6.656;2022-12-17T14:20:37;-0.90;99.90
26270;DHT22;15937;50.612;6.656;2022-12-17T14:24:40;-1.00;99.90
26270;DHT22;15937;50.612;6.656;2022-12-17T14:28:46;-0.90;99.90
26270;DHT22;15937;50.612;6.656;2022-12-17T14:32:51;-1.00;99.90
26270;DHT22;15937;50.612;6.656;2022-12-17T14:36:59;-1.10;99.90
26270;DHT22;15937;50.612;6.656;2022-12-17T14:41:16;-1.00;99.90
26270;DHT22;15937;50.612;6.656;2022-12-17T14:45:37;-1.00;99.90
26270;DHT22;15937;50.612;6.656;2022-12-17T14:50:01;-1.10;99.90
26270;DHT22;15937;50.612;6.656;2022-12-17T14:58:15;-1.30;99.90
26270;DHT22;15937;50.612;6.656;2022-12-17T15:02:21;-1.30;99.90
26270;DHT22;15937;50.612;6.656;2022-12-17T15:06:24;-1.50;99.90
26270;DHT22;15937;50.612;6.656;2022-12-17T15:10:27;-1.50;99.90
26270;DHT22;15937;50.612;6.656;2022-12-17T15:14:29;-1.60;99.90
26270;DHT22;15937;50.612;6.656;2022-12-17T15:18:30;-1.70;99.90
26270;DHT22;15937;50.612;6.656;2022-12-17T15:22:32;-1.70;99.90
26270;DHT22;15937;50.612;6.656;2022-12-17T15:26:35;-1.80;99.90
26270;DHT22;15937;50.612;6.656;2022-12-17T15:30:37;-1.80;99.90
26270;DHT22;15937;50.612;6.656;2022-12-17T15:34:40;-2.00;99.90
26270;DHT22;15937;50.612;6.656;2022-12-17T18:59:44;-3.20;99.90
26270;DHT22;15937;50.612;6.656;2022-12-17T19:03:48;-3.20;99.90
26270;DHT22;15937;50.612;6.656;2022-12-17T19:07:49;-3.30;99.90
26270;DHT22;15937;50.612;6.656;2022-12-17T19:11:51;-3.30;99.90
26270;DHT22;15937;50.612;6.656;2022-12-17T19:15:53;-3.40;99.90
26270;DHT22;15937;50.612;6.656;2022-12-17T19:19:55;-3.40;99.90
26270;DHT22;15937;50.612;6.656;2022-12-17T19:23:57;-3.50;99.90
26270;DHT22;15937;50.612;6.656;2022-12-17T19:27:59;-3.50;99.90
26270;DHT22;15937;50.612;6.656;2022-12-17T19:32:00;-3.60;99.90
26270;DHT22;15937;50.612;6.656;2022-12-17T19:36:03;-3.60;99.90
26270;DHT22;15937;50.612;6.656;2022-12-17T19:40:05;-3.70;99.90
26270;DHT22;15937;50.612;6.656;2022-12-17T19:44:09;-3.80;99.90
26270;DHT22;15937;50.612;6.656;2022-12-17T19:48:11;-3.80;99.90
26270;DHT22;15937;50.612;6.656;2022-12-17T19:52:17;-3.80;99.90
26270;DHT22;15937;50.612;6.656;2022-12-17T20:00:20;-4.00;99.90
26270;DHT22;15937;50.612;6.656;2022-12-17T20:04:22;-4.10;99.90
26270;DHT22;15937;50.612;6.656;2022-12-17T20:08:24;-4.20;99.90
26270;DHT22;15937;50.612;6.656;2022-12-17T20:12:25;-4.40;99.90
26270;DHT22;15937;50.612;6.656;2022-12-17T20:16:27;-4.40;99.90
26270;DHT22;15937;50.612;6.656;2022-12-17T20:20:30;-4.40;99.90
26270;DHT22;15937;50.612;6.656;2022-12-17T20:24:31;-4.60;99.90
26270;DHT22;15937;50.612;6.656;2022-12-17T20:28:33;-4.60;99.90
26270;DHT22;15937;50.612;6.656;2022-12-17T20:32:34;-4.70;99.90
26270;DHT22;15937;50.612;6.656;2022-12-17T20:36:37;-4.60;99.90
26270;DHT22;15937;50.612;6.656;2022-12-17T20:40:41;-4.50;99.90
26270;DHT22;15937;50.612;6.656;2022-12-17T20:44:42;-4.70;99.90
26270;DHT22;15937;50.612;6.656;2022-12-17T20:48:50;-4.90;99.90
26270;DHT22;15937;50.612;6.656;2022-12-17T20:52:52;-4.80;99.90
26270;DHT22;15937;50.612;6.656;2022-12-17T20:56:54;-4.90;99.90
26270;DHT22;15937;50.612;6.656;2022-12-17T21:01:06;-5.00;99.90
26270;DHT22;15937;50.612;6.656;2022-12-17T21:05:08;-4.80;99.90
26270;DHT22;15937;50.612;6.656;2022-12-17T21:09:11;-4.70;99.90
26270;DHT22;15937;50.612;6.656;2022-12-17T21:13:13;-4.90;99.90
26270;DHT22;15937;50.612;6.656;2022-12-17T21:17:30;-5.10;99.90
26270;DHT22;15937;50.612;6.656;2022-12-17T21:21:32;-5.00;99.90
26270;DHT22;15937;50.612;6.656;2022-12-17T21:25:34;-5.00;99.90
26270;DHT22;15937;50.612;6.656;2022-12-17T21:29:36;-5.00;99.90
26270;DHT22;15937;50.612;6.656;2022-12-17T21:33:37;-5.10;99.90
26270;DHT22;15937;50.612;6.656;2022-12-17T21:37:40;-5.20;99.90
26270;DHT22;15937;50.612;6.656;2022-12-17T21:41:43;-5.20;99.90
26270;DHT22;15937;50.612;6.656;2022-12-17T21:46:05;-5.20;99.90
26270;DHT22;15937;50.612;6.656;2022-12-17T21:50:08;-5.20;99.90
26270;DHT22;15937;50.612;6.656;2022-12-17T21:54:09;-5.20;99.90
26270;DHT22;15937;50.612;6.656;2022-12-17T21:58:19;-5.10;99.90
26270;DHT22;15937;50.612;6.656;2022-12-17T22:02:22;-5.20;99.90
26270;DHT22;15937;50.612;6.656;2022-12-17T22:06:24;-5.10;99.90
26270;DHT22;15937;50.612;6.656;2022-12-17T22:10:41;-5.10;99.90
26270;DHT22;15937;50.612;6.656;2022-12-17T22:14:53;-5.10;99.90
26270;DHT22;15937;50.612;6.656;2022-12-17T22:18:55;-5.10;99.90
26270;DHT22;15937;50.612;6.656;2022-12-17T22:22:58;-5.10;99.90
26270;DHT22;15937;50.612;6.656;2022-12-17T22:27:00;-5.00;99.90
26270;DHT22;15937;50.612;6.656;2022-12-17T22:31:06;-5.10;99.90
26270;DHT22;15937;50.612;6.656;2022-12-17T22:35:32;-5.20;99.90
26270;DHT22;15937;50.612;6.656;2022-12-17T22:39:55;-5.00;99.90
26270;DHT22;15937;50.612;6.656;2022-12-17T22:44:17;-5.10;99.90
26270;DHT22;15937;50.612;6.656;2022-12-17T22:48:39;-5.00;99.90
26270;DHT22;15937;50.612;6.656;2022-12-17T22:52:41;-5.00;99.90
26270;DHT22;15937;50.612;6.656;2022-12-17T22:56:44;-4.90;99.90
26270;DHT22;15937;50.612;6.656;2022-12-17T23:01:06;-4.90;99.90
26270;DHT22;15937;50.612;6.656;2022-12-17T23:05:08;-4.80;99.90
26270;DHT22;15937;50.612;6.656;2022-12-17T23:09:10;-4.70;99.90
26270;DHT22;15937;50.612;6.656;2022-12-17T23:13:12;-4.50;99.90
26270;DHT22;15937;50.612;6.656;2022-12-17T23:17:14;-4.20;99.90
26270;DHT22;15937;50.612;6.656;2022-12-17T23:21:17;-3.80;99.90
26270;DHT22;15937;50.612;6.656;2022-12-17T23:25:19;-3.70;99.90
26270;DHT22;15937;50.612;6.656;2022-12-17T23:29:21;-3.50;99.90
26270;DHT22;15937;50.612;6.656;2022-12-17T23:33:24;-3.50;99.90
26270;DHT22;15937;50.612;6.656;2022-12-17T23:37:25;-3.40;99.90
26270;DHT22;15937;50.612;6.656;2022-12-17T23:41:28;-3.30;99.90
26270;DHT22;15937;50.612;6.656;2022-12-17T23:45:30;-3.20;99.90
26270;DHT22;15937;50.612;6.656;2022-12-17T23:49:32;-3.10;99.90
26270;DHT22;15937;50.612;6.656;2022-12-17T23:53:34;-3.10;99.90
26270;DHT22;15937;50.612;6.656;2022-12-17T23:57:36;-3.30;99.90
